Time;durP1;ratioP1;P1;durP2;ratioP2;P2;SDS_P1;SDS_P2;PMS_P1;PMS_P2;Temp;Humidity;BMP_temperature;BMP_pressure;BME280_temperature;BME280_humidity;BME280_pressure;Samples;Min_cycle;Max_cycle;Signal;HPM_P1;HPM_P2
2021/12/23 00:00:36;;;;;;;3.35;3.13;;;-3.30;99.90;;;;;;4911220;29;20492;-83
2021/12/23 00:03:03;;;;;;;7.53;1.35;;;-5.50;99.90;;;;;;4912231;29;20028;-85
2021/12/23 00:05:29;;;;;;;4.90;2.80;;;-3.00;99.90;;;;;;4911678;29;20429;-84
2021/12/23 00:07:55;;;;;;;4.57;4.18;;;-3.50;99.90;;;;;;4910986;29;20024;-87
2021/12/23 00:10:20;;;;;;;2.28;2.13;;;-4.00;99.90;;;;;;4912205;29;20537;-84
2021/12/23 00:12:46;;;;;;;7.43;4.32;;;-5.50;99.90;;;;;;4910881;29;20738;-83
2021/12/23 00:17:56;;;;;;;7.85;4.63;;;-5.50;99.90;;;;;;4912347;29;20501;-84
2021/12/23 00:25:41;;;;;;;3.17;2.42;;;-5.70;99.90;;;;;;4922254;29;20040;-88
2021/12/23 00:28:07;;;;;;;3.65;3.33;;;-5.70;99.90;;;;;;4930269;29;20039;-91
2021/12/23 00:30:32;;;;;;;14.80;2.97;;;-5.70;99.90;;;;;;4930314;29;20028;-85
2021/12/23 00:32:58;;;;;;;3.85;3.40;;;-5.70;99.90;;;;;;4915492;29;20050;-87
2021/12/23 00:35:25;;;;;;;8.93;5.07;;;-5.70;99.90;;;;;;4930642;29;20043;-83
2021/12/23 00:37:57;;;;;;;2.95;2.70;;;-5.70;99.90;;;;;;4930509;29;20066;-88
2021/12/23 00:40:23;;;;;;;4.68;3.55;;;-5.70;99.90;;;;;;4913352;29;20031;-89
2021/12/23 00:42:48;;;;;;;1.83;1.73;;;-5.70;99.90;;;;;;4913392;29;20047;-88
2021/12/23 00:45:14;;;;;;;4.57;2.83;;;-5.70;99.90;;;;;;4930589;29;20043;-89
2021/12/23 00:47:40;;;;;;;3.50;3.22;;;-5.80;99.90;;;;;;4913322;29;20038;-82
2021/12/23 00:50:06;;;;;;;2.05;1.63;;;-5.70;99.90;;;;;;4930517;29;20136;-82
2021/12/23 00:52:35;;;;;;;6.50;4.68;;;-5.70;99.90;;;;;;4913467;29;20095;-88
2021/12/23 00:55:02;;;;;;;7.75;3.58;;;-5.60;99.90;;;;;;4927255;29;20062;-82
2021/12/23 00:57:29;;;;;;;4.00;3.75;;;-5.50;99.90;;;;;;4932641;29;20421;-81
2021/12/23 00:59:57;;;;;;;13.52;2.03;;;-4.50;99.90;;;;;;4934418;29;20043;-80
2021/12/23 01:02:28;;;;;;;8.50;4.50;;;-5.50;99.90;;;;;;4934109;29;20427;-84
2021/12/23 01:04:53;;;;;;;6.68;2.80;;;-5.50;99.90;;;;;;4951578;29;20031;-88
2021/12/23 01:07:19;;;;;;;3.25;2.95;;;-5.50;99.90;;;;;;4934003;29;20070;-86
2021/12/23 01:09:45;;;;;;;6.35;2.53;;;-5.50;99.90;;;;;;4937892;29;20035;-87
2021/12/23 01:12:13;;;;;;;11.80;3.47;;;-3.10;99.90;;;;;;4953672;29;20046;-80
2021/12/23 01:15:57;;;;;;;3.78;3.55;;;-5.40;99.90;;;;;;4934309;29;20078;-87
2021/12/23 01:17:52;;;;;;;5.65;4.72;;;-3.00;99.90;;;;;;4942266;29;20039;-79
2021/12/23 01:20:20;;;;;;;6.10;2.55;;;-5.50;99.90;;;;;;4933404;29;20028;-80
2021/12/23 01:22:46;;;;;;;14.90;4.60;;;-5.50;99.90;;;;;;4933945;29;20034;-87
2021/12/23 01:25:12;;;;;;;3.00;2.20;;;-5.60;99.90;;;;;;4934023;29;20039;-88
2021/12/23 01:27:37;;;;;;;2.78;2.60;;;-4.60;99.90;;;;;;4934354;29;20031;-85
2021/12/23 01:30:04;;;;;;;8.85;4.82;;;-5.60;99.90;;;;;;4934118;29;20035;-81
2021/12/23 01:32:30;;;;;;;9.02;3.13;;;-5.60;99.90;;;;;;4933314;29;20047;-80
2021/12/23 01:34:56;;;;;;;6.78;1.27;;;-2.20;99.90;;;;;;4933864;29;20090;-80
2021/12/23 01:37:21;;;;;;;11.48;3.35;;;-3.60;99.90;;;;;;4934130;29;20471;-80
2021/12/23 01:39:47;;;;;;;4.28;3.20;;;-5.50;99.90;;;;;;4934186;29;20072;-80
2021/12/23 01:42:13;;;;;;;2.42;2.28;;;-3.60;99.90;;;;;;4953597;28;20453;-80
2021/12/23 01:44:38;;;;;;;9.95;2.80;;;-3.60;99.90;;;;;;4937182;29;20039;-86
2021/12/23 01:47:04;;;;;;;5.53;2.38;;;-5.60;99.90;;;;;;4937280;29;20039;-80
2021/12/23 01:49:31;;;;;;;5.53;3.47;;;-5.60;99.90;;;;;;4937401;29;20096;-84
2021/12/23 01:51:57;;;;;;;6.10;3.92;;;-3.70;99.90;;;;;;4937230;29;20097;-87
2021/12/23 01:54:23;;;;;;;12.70;3.00;;;-2.80;99.90;;;;;;4937569;29;20465;-81
2021/12/23 01:56:49;;;;;;;2.35;2.17;;;-3.90;99.90;;;;;;4937249;29;20067;-79
2021/12/23 01:59:15;;;;;;;8.18;3.55;;;-5.50;99.90;;;;;;4936805;29;20027;-84
2021/12/23 02:01:41;;;;;;;4.55;2.92;;;-5.30;99.90;;;;;;4936904;29;20058;-90
2021/12/23 02:04:07;;;;;;;3.05;2.85;;;-5.40;99.90;;;;;;4954237;29;20023;-90
2021/12/23 02:06:33;;;;;;;2.70;2.60;;;-2.80;99.90;;;;;;4954023;29;20039;-82
2021/12/23 02:08:58;;;;;;;9.43;3.75;;;-5.40;99.90;;;;;;4937008;29;20399;-84
2021/12/23 02:11:24;;;;;;;8.48;6.25;;;-5.40;99.90;;;;;;4954482;29;20035;-85
2021/12/23 02:13:51;;;;;;;2.65;2.55;;;-5.40;99.90;;;;;;4953985;29;20054;-80
2021/12/23 02:16:16;;;;;;;2.63;2.47;;;-5.40;99.90;;;;;;4937088;29;20472;-88
2021/12/23 02:18:42;;;;;;;6.40;2.83;;;-5.40;99.90;;;;;;4953986;29;20042;-81
2021/12/23 02:21:08;;;;;;;2.47;1.60;;;-5.40;99.90;;;;;;4936907;29;20028;-82
2021/12/23 02:23:34;;;;;;;7.45;3.30;;;-5.50;99.90;;;;;;4954288;29;20555;-80
2021/12/23 02:26:00;;;;;;;4.00;2.15;;;-3.20;99.90;;;;;;4954026;29;20182;-86
2021/12/23 02:28:27;;;;;;;10.80;3.92;;;-2.60;99.90;;;;;;4953944;29;20110;-81
2021/12/23 02:30:52;;;;;;;6.65;2.10;;;-5.30;99.90;;;;;;4953997;29;20031;-86
2021/12/23 02:33:21;;;;;;;4.80;2.35;;;-5.20;99.90;;;;;;4953618;28;20054;-80
2021/12/23 02:35:46;;;;;;;6.88;4.07;;;-2.60;99.90;;;;;;4953993;29;20028;-85
2021/12/23 02:38:12;;;;;;;5.97;4.53;;;-2.70;99.90;;;;;;4936299;29;20023;-83
2021/12/23 02:40:41;;;;;;;16.92;5.63;;;-5.00;99.90;;;;;;4936398;29;20037;-84
2021/12/23 02:43:13;;;;;;;3.38;2.67;;;-2.50;99.90;;;;;;4953956;29;20023;-81
2021/12/23 02:45:40;;;;;;;8.77;3.33;;;-5.00;99.90;;;;;;4936368;29;20500;-90
2021/12/23 02:48:15;;;;;;;5.38;4.82;;;-2.00;99.90;;;;;;4936391;29;20027;-83
2021/12/23 02:50:43;;;;;;;3.83;3.53;;;-4.90;99.90;;;;;;4940737;29;20039;-83
2021/12/23 02:53:09;;;;;;;7.32;5.25;;;-3.40;99.90;;;;;;4953088;28;20436;-87
2021/12/23 02:55:36;;;;;;;3.22;2.95;;;-2.80;99.90;;;;;;4936269;29;20068;-80
2021/12/23 02:58:01;;;;;;;8.80;5.90;;;-5.00;99.90;;;;;;4935848;29;20091;-81
2021/12/23 03:00:27;;;;;;;12.13;3.83;;;-5.00;99.90;;;;;;4935638;29;20027;-86
2021/12/23 03:02:53;;;;;;;5.90;2.45;;;-5.10;99.90;;;;;;4936019;29;20083;-85
2021/12/23 03:05:18;;;;;;;2.38;2.15;;;-3.60;99.90;;;;;;4936037;29;20484;-81
2021/12/23 03:07:44;;;;;;;4.93;3.35;;;-5.10;99.90;;;;;;4953568;29;20028;-83
2021/12/23 03:10:11;;;;;;;5.93;4.25;;;-5.10;99.90;;;;;;4952894;29;20055;-84
2021/12/23 03:12:37;;;;;;;7.03;3.13;;;-2.80;99.90;;;;;;4935656;29;20393;-81
2021/12/23 03:15:04;;;;;;;5.82;3.53;;;-3.90;99.90;;;;;;4953002;29;20532;-80
2021/12/23 03:17:30;;;;;;;4.10;3.75;;;-5.00;99.90;;;;;;4952401;28;20543;-80
2021/12/23 03:19:56;;;;;;;5.05;3.67;;;-5.00;99.90;;;;;;4952771;29;20400;-79
2021/12/23 03:22:22;;;;;;;7.30;5.60;;;-5.00;99.90;;;;;;4935756;29;20024;-88
2021/12/23 03:24:48;;;;;;;3.15;2.88;;;-4.90;99.90;;;;;;4952847;29;20035;-88
2021/12/23 03:27:14;;;;;;;7.15;4.40;;;-4.90;99.90;;;;;;4935368;29;20152;-88
2021/12/23 03:29:39;;;;;;;5.63;2.58;;;-5.00;99.90;;;;;;4935768;29;20019;-81
2021/12/23 03:32:05;;;;;;;4.20;2.95;;;-5.00;99.90;;;;;;4935233;29;20049;-83
2021/12/23 03:34:31;;;;;;;7.32;5.35;;;-5.00;99.90;;;;;;4935417;29;20047;-91
2021/12/23 03:36:57;;;;;;;4.75;3.88;;;-4.30;99.90;;;;;;4952788;29;20122;-87
2021/12/23 03:39:23;;;;;;;4.93;3.30;;;-4.90;99.90;;;;;;4935495;29;20027;-83
2021/12/23 03:41:48;;;;;;;8.80;2.40;;;-4.90;99.90;;;;;;4952663;29;20331;-81
2021/12/23 03:44:14;;;;;;;7.68;4.13;;;-4.90;99.90;;;;;;4935327;29;20531;-81
2021/12/23 03:46:40;;;;;;;11.48;3.88;;;-4.80;99.90;;;;;;4934635;29;20050;-80
2021/12/23 03:49:06;;;;;;;5.35;4.38;;;-2.30;99.90;;;;;;4951961;29;20065;-81
2021/12/23 03:51:32;;;;;;;8.90;5.07;;;-4.80;99.90;;;;;;4934725;29;20472;-82
2021/12/23 03:53:58;;;;;;;4.47;4.13;;;-2.30;99.90;;;;;;4935290;29;20077;-80
2021/12/23 03:56:24;;;;;;;8.68;5.53;;;-4.90;99.90;;;;;;4935215;29;20027;-80
2021/12/23 03:58:49;;;;;;;13.90;5.18;;;-4.90;99.90;;;;;;4934745;29;20110;-82
2021/12/23 04:01:16;;;;;;;6.45;3.13;;;-3.40;99.90;;;;;;4934830;29;20034;-80
2021/12/23 04:03:42;;;;;;;4.20;3.53;;;-4.90;99.90;;;;;;4951690;28;20042;-79
2021/12/23 04:06:08;;;;;;;5.90;3.70;;;-4.90;99.90;;;;;;4933769;29;20039;-80
2021/12/23 04:08:33;;;;;;;4.78;4.20;;;-5.00;99.90;;;;;;4934337;29;20058;-88
2021/12/23 04:11:00;;;;;;;10.68;3.50;;;-5.00;99.90;;;;;;4952014;29;20085;-89
2021/12/23 04:13:28;;;;;;;7.18;3.25;;;-5.00;99.90;;;;;;4952146;29;20380;-83
2021/12/23 04:15:54;;;;;;;14.13;4.53;;;-5.00;99.90;;;;;;4935106;29;20031;-88
2021/12/23 04:18:20;;;;;;;1.73;1.60;;;-5.00;99.90;;;;;;4934971;29;20030;-80
2021/12/23 04:20:53;;;;;;;20.65;4.07;;;-5.00;99.90;;;;;;4934812;29;20299;-83
2021/12/23 04:23:20;;;;;;;6.35;3.88;;;-5.20;99.90;;;;;;4934241;29;20404;-81
2021/12/23 04:25:46;;;;;;;8.68;2.90;;;-5.20;99.90;;;;;;4934268;29;20416;-90
2021/12/23 04:28:11;;;;;;;8.10;3.70;;;-2.90;99.90;;;;;;4934352;29;20031;-80
2021/12/23 04:30:37;;;;;;;3.25;2.40;;;-5.50;99.90;;;;;;4934656;29;20404;-81
2021/12/23 04:33:03;;;;;;;6.07;4.55;;;-5.50;99.90;;;;;;4934620;29;20332;-80
2021/12/23 04:35:29;;;;;;;22.17;6.13;;;-4.70;99.90;;;;;;4952590;29;20043;-86
2021/12/23 04:37:54;;;;;;;3.67;2.35;;;-5.30;99.90;;;;;;4956842;29;20027;-87
2021/12/23 04:40:20;;;;;;;7.65;3.03;;;-5.40;99.90;;;;;;4951968;29;20059;-85
2021/12/23 04:42:46;;;;;;;7.43;2.05;;;-5.40;99.90;;;;;;4952040;29;20428;-91
2021/12/23 04:45:12;;;;;;;15.93;3.60;;;-2.60;99.90;;;;;;4934336;29;20057;-80
2021/12/23 04:47:39;;;;;;;7.25;5.63;;;-5.50;99.90;;;;;;4934434;29;20023;-80
2021/12/23 04:50:07;;;;;;;5.50;4.65;;;-5.40;99.90;;;;;;4951495;29;20028;-80
2021/12/23 04:52:32;;;;;;;3.35;2.92;;;-5.20;99.90;;;;;;4951493;29;20532;-80
2021/12/23 04:54:58;;;;;;;6.40;5.78;;;-5.20;99.90;;;;;;4934257;29;20126;-86
2021/12/23 04:57:24;;;;;;;7.45;1.67;;;-5.10;99.90;;;;;;4951423;29;20031;-80
2021/12/23 04:59:49;;;;;;;10.70;5.55;;;-5.40;99.90;;;;;;4933870;29;20034;-85
2021/12/23 05:02:15;;;;;;;3.88;2.08;;;-5.40;99.90;;;;;;4951491;29;20073;-82
2021/12/23 05:04:41;;;;;;;3.58;3.10;;;-5.50;99.90;;;;;;4933981;29;20031;-82
2021/12/23 05:07:06;;;;;;;12.90;5.05;;;-5.40;99.90;;;;;;4933686;29;20034;-80
2021/12/23 05:09:32;;;;;;;7.97;3.50;;;-5.20;99.90;;;;;;4951150;29;20051;-80
2021/12/23 05:11:58;;;;;;;4.18;2.65;;;-5.20;99.90;;;;;;4934171;29;20027;-80
2021/12/23 05:14:23;;;;;;;3.20;2.92;;;-5.10;99.90;;;;;;4951106;29;20023;-79
2021/12/23 05:16:49;;;;;;;13.07;3.67;;;-3.50;99.90;;;;;;4953401;28;20411;-80
2021/12/23 05:19:15;;;;;;;8.20;2.30;;;-5.10;99.90;;;;;;4937399;29;20145;-82
2021/12/23 05:21:40;;;;;;;6.13;2.08;;;-5.10;99.90;;;;;;4937319;29;20725;-86
2021/12/23 05:24:06;;;;;;;6.60;4.10;;;-5.10;99.90;;;;;;4937853;29;20020;-80
2021/12/23 05:26:32;;;;;;;11.77;5.85;;;-5.10;99.90;;;;;;4937310;29;20035;-80
2021/12/23 05:28:57;;;;;;;3.88;2.17;;;-4.10;99.90;;;;;;4954818;29;20019;-80
2021/12/23 05:31:23;;;;;;;5.97;4.53;;;-5.00;99.90;;;;;;4937433;29;20034;-80
2021/12/23 05:33:49;;;;;;;3.75;3.45;;;-5.00;99.90;;;;;;4937058;29;20047;-79
2021/12/23 05:36:14;;;;;;;4.00;3.47;;;-2.30;99.90;;;;;;4937239;29;20023;-80
2021/12/23 05:38:40;;;;;;;11.82;4.32;;;-4.90;99.90;;;;;;4936568;29;20035;-80
2021/12/23 05:41:06;;;;;;;4.43;3.83;;;-3.80;99.90;;;;;;4937011;29;20027;-81
2021/12/23 05:43:31;;;;;;;9.45;5.63;;;-5.00;99.90;;;;;;4954440;29;20033;-85
2021/12/23 05:45:58;;;;;;;3.65;3.42;;;-4.00;99.90;;;;;;4936809;29;20043;-83
2021/12/23 05:48:24;;;;;;;5.55;3.10;;;-5.00;99.90;;;;;;4954308;29;20488;-83
2021/12/23 05:50:50;;;;;;;12.70;6.28;;;-5.00;99.90;;;;;;4954248;29;20030;-79
2021/12/23 05:53:15;;;;;;;4.55;4.05;;;-5.00;99.90;;;;;;4936966;29;20047;-81
2021/12/23 05:55:41;;;;;;;5.05;3.35;;;-5.10;99.90;;;;;;4953886;29;20503;-81
2021/12/23 05:58:06;;;;;;;6.78;3.53;;;-5.20;99.90;;;;;;4937038;29;20075;-87
2021/12/23 06:00:33;;;;;;;4.38;2.30;;;-5.20;99.90;;;;;;4937088;29;20035;-82
2021/12/23 06:03:01;;;;;;;11.13;5.28;;;-5.20;99.90;;;;;;4936938;29;20027;-80
2021/12/23 06:05:27;;;;;;;5.47;3.30;;;-4.00;99.90;;;;;;4954094;29;20106;-85
2021/12/23 06:07:53;;;;;;;9.27;3.95;;;-5.40;99.90;;;;;;4954076;29;20035;-83
2021/12/23 06:10:19;;;;;;;2.65;2.45;;;-5.50;99.90;;;;;;4954370;29;20027;-80
2021/12/23 06:12:45;;;;;;;2.42;1.25;;;-5.50;99.90;;;;;;4936871;29;20484;-80
2021/12/23 06:15:12;;;;;;;3.03;2.78;;;-3.40;99.90;;;;;;4936841;29;20030;-80
2021/12/23 06:17:38;;;;;;;3.72;2.22;;;-5.50;99.90;;;;;;4936616;29;20102;-80
2021/12/23 06:20:06;;;;;;;5.45;3.63;;;-5.50;99.90;;;;;;4937117;29;20130;-79
2021/12/23 06:22:34;;;;;;;4.45;4.00;;;-5.50;99.90;;;;;;4935693;29;20071;-82
2021/12/23 06:25:01;;;;;;;2.97;2.25;;;-5.50;99.90;;;;;;4937058;29;20087;-92
2021/12/23 06:27:27;;;;;;;9.68;3.35;;;;;;;;;;4940628;29;20031;-81
2021/12/23 06:29:52;;;;;;;8.88;3.28;;;-5.40;99.90;;;;;;4936987;29;20130;-84
2021/12/23 06:32:18;;;;;;;3.33;3.03;;;-5.30;99.90;;;;;;4953596;29;20128;-87
2021/12/23 06:34:44;;;;;;;8.10;3.22;;;-5.10;99.90;;;;;;4936289;29;20547;-83
2021/12/23 06:37:10;;;;;;;1.90;1.80;;;-3.40;99.90;;;;;;4936263;29;20639;-85
2021/12/23 06:39:36;;;;;;;2.03;1.90;;;-4.90;99.90;;;;;;4936168;29;20023;-83
2021/12/23 06:42:03;;;;;;;15.93;5.68;;;-4.90;99.90;;;;;;4936293;29;20023;-84
2021/12/23 06:44:28;;;;;;;3.33;2.10;;;-5.00;99.90;;;;;;4953881;29;20027;-80
2021/12/23 06:46:54;;;;;;;15.02;4.03;;;-2.50;99.90;;;;;;4953505;29;20034;-79
2021/12/23 06:49:20;;;;;;;3.30;3.00;;;-2.70;99.90;;;;;;4953860;29;20065;-79
2021/12/23 06:51:46;;;;;;;6.85;2.65;;;-3.10;99.90;;;;;;4953465;29;20074;-80
2021/12/23 06:54:16;;;;;;;5.47;2.65;;;-3.10;99.90;;;;;;4953284;29;20495;-79
2021/12/23 06:56:43;;;;;;;19.10;3.65;;;-3.40;99.90;;;;;;4936200;29;20130;-80
2021/12/23 06:59:09;;;;;;;5.30;4.80;;;-3.00;99.90;;;;;;4935869;29;20024;-81
2021/12/23 07:01:35;;;;;;;5.05;4.70;;;-4.90;99.90;;;;;;4936131;29;20075;-87
2021/12/23 07:06:31;;;;;;;11.27;4.05;;;-2.50;99.90;;;;;;4953436;29;20035;-80
2021/12/23 07:08:58;;;;;;;12.10;5.57;;;-2.60;99.90;;;;;;4936071;29;20578;-86
2021/12/23 07:11:23;;;;;;;11.68;4.55;;;-2.50;99.90;;;;;;4935562;29;20035;-80
2021/12/23 07:13:49;;;;;;;3.30;3.13;;;-2.20;99.90;;;;;;4953279;29;20034;-87
2021/12/23 07:16:15;;;;;;;9.02;5.05;;;-2.00;99.90;;;;;;4952990;29;20027;-88
2021/12/23 07:18:41;;;;;;;12.27;5.32;;;-3.30;99.90;;;;;;4935760;29;20038;-78
2021/12/23 07:21:07;;;;;;;12.77;5.60;;;-3.60;99.90;;;;;;4953779;29;20030;-83
2021/12/23 07:23:32;;;;;;;11.93;5.32;;;-4.70;99.90;;;;;;4955163;29;20086;-81
2021/12/23 07:25:58;;;;;;;5.18;2.65;;;-4.60;99.90;;;;;;4953728;29;20031;-83
2021/12/23 07:28:24;;;;;;;5.13;3.50;;;-4.60;99.90;;;;;;4953212;29;20110;-82
2021/12/23 07:30:49;;;;;;;7.35;3.50;;;-2.10;99.90;;;;;;4935606;29;20078;-84
2021/12/23 07:33:15;;;;;;;3.92;3.35;;;-1.70;99.90;;;;;;4935377;29;20404;-82
2021/12/23 07:35:41;;;;;;;6.50;3.40;;;-3.90;99.90;;;;;;4935263;29;20031;-81
2021/12/23 07:38:07;;;;;;;9.60;5.22;;;-2.80;99.90;;;;;;4936151;29;20019;-80
2021/12/23 07:40:33;;;;;;;5.00;2.95;;;-4.40;99.90;;;;;;4953862;28;20031;-81
2021/12/23 07:43:09;;;;;;;21.73;4.95;;;-4.40;99.90;;;;;;4953019;29;20346;-80
2021/12/23 07:45:37;;;;;;;11.07;5.63;;;-4.30;99.90;;;;;;4952491;29;20066;-83
2021/12/23 07:48:03;;;;;;;12.10;6.00;;;-4.00;99.90;;;;;;4936084;29;20023;-83
2021/12/23 07:50:29;;;;;;;5.57;2.97;;;-4.40;99.90;;;;;;4954539;29;20086;-80
2021/12/23 07:52:55;;;;;;;2.33;2.22;;;-4.30;99.90;;;;;;4936773;29;20159;-81
2021/12/23 07:55:21;;;;;;;3.58;3.03;;;-4.40;99.90;;;;;;4952798;29;20043;-81
2021/12/23 07:57:49;;;;;;;9.88;5.60;;;-4.30;99.90;;;;;;4953817;29;20031;-80
2021/12/23 08:00:16;;;;;;;8.05;3.53;;;-4.40;99.90;;;;;;4937908;29;20038;-80
2021/12/23 08:02:43;;;;;;;10.65;4.57;;;-4.40;99.90;;;;;;4939407;29;20023;-81
2021/12/23 08:05:09;;;;;;;7.63;4.65;;;-2.40;99.90;;;;;;4935794;29;20421;-81
2021/12/23 08:07:35;;;;;;;4.70;2.00;;;-4.30;99.90;;;;;;4934943;29;20059;-82
2021/12/23 08:10:00;;;;;;;9.95;3.47;;;-4.20;99.90;;;;;;4935672;29;20058;-82
2021/12/23 08:12:26;;;;;;;6.30;5.40;;;-2.80;99.90;;;;;;4953458;29;20023;-82
2021/12/23 08:14:52;;;;;;;5.63;3.17;;;-4.10;99.90;;;;;;4938795;29;20038;-81
2021/12/23 08:17:18;;;;;;;8.05;2.72;;;-2.50;99.90;;;;;;4935490;29;20101;-83
2021/12/23 08:19:43;;;;;;;9.10;5.15;;;-3.40;99.90;;;;;;4952654;29;20050;-87
2021/12/23 08:22:09;;;;;;;8.27;5.43;;;-3.50;99.90;;;;;;4946974;29;20031;-89
2021/12/23 08:24:35;;;;;;;3.80;3.45;;;-3.50;99.90;;;;;;4940284;29;20027;-80
2021/12/23 08:27:04;;;;;;;6.63;3.22;;;-3.50;99.90;;;;;;4950932;29;20086;-85
2021/12/23 08:29:30;;;;;;;9.65;4.18;;;-3.40;99.90;;;;;;4923453;29;20099;-76
2021/12/23 08:31:55;;;;;;;24.55;9.38;;;-3.30;99.90;;;;;;4915496;29;20042;-87
2021/12/23 08:34:22;;;;;;;20.73;5.97;;;-2.60;99.90;;;;;;4918240;29;20064;-84
2021/12/23 08:36:48;;;;;;;15.30;4.75;;;-1.80;99.90;;;;;;4916944;29;20023;-78
2021/12/23 08:39:15;;;;;;;15.35;5.88;;;-2.90;99.90;;;;;;4940689;29;20055;-82
2021/12/23 08:41:41;;;;;;;30.63;8.75;;;-2.10;99.90;;;;;;4924684;29;20032;-81
2021/12/23 08:44:07;;;;;;;5.20;4.55;;;-1.70;99.90;;;;;;4916773;29;20039;-81
2021/12/23 08:46:33;;;;;;;15.00;4.75;;;-2.70;99.90;;;;;;4921428;29;20164;-81
2021/12/23 08:48:58;;;;;;;7.13;2.78;;;-2.30;99.90;;;;;;4940299;29;20035;-81
2021/12/23 08:51:24;;;;;;;14.95;4.90;;;-1.50;99.90;;;;;;4931329;29;20527;-82
2021/12/23 08:53:50;;;;;;;5.32;4.78;;;-2.50;99.90;;;;;;4945220;29;20495;-82
2021/12/23 08:56:16;;;;;;;7.10;5.40;;;-1.30;99.90;;;;;;4939628;29;20044;-80
2021/12/23 08:58:42;;;;;;;3.70;3.45;;;-2.00;99.90;;;;;;4958049;29;20083;-84
2021/12/23 09:01:08;;;;;;;10.43;4.13;;;-2.30;99.90;;;;;;4941977;29;20032;-83
2021/12/23 09:03:34;;;;;;;17.77;6.40;;;-2.10;99.90;;;;;;4938980;29;20030;-83
2021/12/23 09:06:03;;;;;;;11.43;6.45;;;-1.70;99.90;;;;;;4930158;29;20032;-82
2021/12/23 09:08:29;;;;;;;4.15;3.45;;;-1.70;99.90;;;;;;4923559;29;20032;-85
2021/12/23 09:10:56;;;;;;;22.98;6.70;;;-1.20;99.90;;;;;;4917779;29;20408;-84
2021/12/23 09:13:23;;;;;;;24.13;5.38;;;-1.10;99.90;;;;;;4939253;29;20032;-87
2021/12/23 09:15:49;;;;;;;24.40;8.73;;;-1.20;99.90;;;;;;4918132;29;20032;-92
2021/12/23 09:18:15;;;;;;;12.50;4.80;;;-0.90;99.90;;;;;;4924534;29;20093;-85
2021/12/23 09:20:40;;;;;;;6.88;4.97;;;-0.80;99.90;;;;;;4937903;29;20068;-87
2021/12/23 09:23:07;;;;;;;13.63;5.25;;;-0.20;99.90;;;;;;4927728;29;20023;-81
2021/12/23 09:25:33;;;;;;;8.63;5.28;;;-1.40;99.90;;;;;;4960473;29;20087;-84
2021/12/23 09:33:12;;;;;;;9.88;5.47;;;-1.30;99.90;;;;;;4950539;29;20090;-83
2021/12/23 09:35:39;;;;;;;12.35;5.50;;;-1.10;99.90;;;;;;4935064;29;20027;-83
2021/12/23 09:38:06;;;;;;;16.17;7.38;;;-1.00;99.90;;;;;;4921991;29;20039;-79
2021/12/23 09:40:33;;;;;;;15.73;5.45;;;-0.80;99.90;;;;;;4919907;29;20036;-81
2021/12/23 09:43:06;;;;;;;14.32;4.97;;;-0.50;99.90;;;;;;4954790;29;20042;-79
2021/12/23 09:45:32;;;;;;;13.40;5.68;;;-0.60;99.90;;;;;;4941910;29;20511;-79
2021/12/23 09:48:01;;;;;;;12.90;4.50;;;-0.40;99.90;;;;;;4938778;29;20477;-79
2021/12/23 09:50:30;;;;;;;12.45;6.55;;;-0.10;99.90;;;;;;4955657;29;20095;-80
2021/12/23 09:52:58;;;;;;;10.60;4.88;;;-0.20;99.90;;;;;;4947824;29;20055;-80
2021/12/23 09:55:25;;;;;;;7.28;3.50;;;-0.10;99.90;;;;;;4923632;29;20032;-81
2021/12/23 09:57:54;;;;;;;8.52;4.78;;;0.00;99.90;;;;;;4933129;29;20554;-78
2021/12/23 10:00:26;;;;;;;14.98;4.65;;;-0.10;99.90;;;;;;4936686;29;20127;-81
2021/12/23 10:02:53;;;;;;;9.80;3.58;;;-0.10;99.90;;;;;;4921713;29;20215;-81
2021/12/23 10:05:24;;;;;;;8.93;5.28;;;0.10;99.90;;;;;;4917765;29;20126;-81
2021/12/23 10:07:50;;;;;;;14.00;7.72;;;0.20;99.90;;;;;;4932053;29;20039;-80
2021/12/23 10:10:26;;;;;;;7.47;5.30;;;0.30;99.90;;;;;;4914851;29;20024;-81
2021/12/23 10:31:54;;;;;;;9.27;6.07;;;1.60;99.90;;;;;;4915245;29;20032;-81
2021/12/23 10:37:14;;;;;;;12.85;6.28;;;1.80;99.90;;;;;;4943386;29;20228;-82
2021/12/23 10:39:43;;;;;;;16.67;6.25;;;1.70;99.90;;;;;;4927373;29;20544;-80
2021/12/23 10:42:15;;;;;;;23.15;8.55;;;1.70;99.90;;;;;;4939378;29;20039;-82
2021/12/23 10:44:55;;;;;;;12.85;6.32;;;1.80;99.90;;;;;;4922240;29;20409;-80
2021/12/23 10:47:52;;;;;;;8.65;5.25;;;1.90;99.90;;;;;;4920921;29;20327;-80
2021/12/23 10:50:27;;;;;;;10.52;6.70;;;2.10;99.90;;;;;;4918463;29;20544;-81
2021/12/23 10:53:01;;;;;;;16.52;7.78;;;2.40;99.90;;;;;;4934620;29;20042;-79
2021/12/23 10:58:11;;;;;;;9.07;5.22;;;2.60;99.90;;;;;;4951427;29;20126;-80
2021/12/23 11:00:45;;;;;;;19.85;6.50;;;2.70;99.90;;;;;;4934049;29;20090;-81
2021/12/23 11:03:22;;;;;;;13.95;5.20;;;3.00;99.90;;;;;;4934890;29;20091;-81
2021/12/23 11:09:36;;;;;;;16.77;6.82;;;3.30;99.90;;;;;;4943558;29;20037;-80
2021/12/23 11:36:31;;;;;;;15.07;7.15;;;3.40;99.90;;;;;;4931209;29;20070;-79
2021/12/23 11:43:56;;;;;;;19.75;7.50;;;3.00;99.90;;;;;;4933945;29;20079;-80
2021/12/23 11:46:35;;;;;;;11.82;5.75;;;3.00;99.90;;;;;;4935396;29;20040;-78
2021/12/23 11:49:02;;;;;;;;;;;3.00;99.90;;;;;;4914749;29;20028;-81
2021/12/23 11:53:57;;;;;;;10.32;4.85;;;3.20;99.90;;;;;;4935708;29;20032;-80
2021/12/23 11:56:25;;;;;;;11.63;6.28;;;3.30;99.90;;;;;;4937638;29;20074;-76
2021/12/23 11:58:51;;;;;;;13.85;6.45;;;3.30;99.90;;;;;;4937643;29;20074;-77
2021/12/23 12:01:24;;;;;;;8.45;4.45;;;3.30;99.90;;;;;;4934683;29;20107;-77
2021/12/23 12:04:01;;;;;;;13.73;5.85;;;3.30;99.90;;;;;;4920742;29;20098;-77
2021/12/23 12:06:38;;;;;;;13.00;4.85;;;3.40;99.90;;;;;;4919233;29;20525;-78
2021/12/23 12:09:14;;;;;;;11.85;6.10;;;3.30;99.90;;;;;;4919313;29;20028;-75
2021/12/23 12:11:42;;;;;;;19.13;6.15;;;3.40;99.90;;;;;;4917336;29;20055;-79
2021/12/23 12:14:36;;;;;;;24.15;7.22;;;3.40;99.90;;;;;;4931720;29;20036;-79
2021/12/23 12:17:24;;;;;;;14.20;4.70;;;3.20;99.90;;;;;;4930894;29;20131;-78
2021/12/23 12:19:56;;;;;;;16.88;6.75;;;3.30;99.90;;;;;;4931595;29;20469;-79
2021/12/23 12:22:55;;;;;;;15.73;5.72;;;3.40;99.90;;;;;;4931911;29;20044;-79
2021/12/23 12:25:24;;;;;;;17.73;6.97;;;3.40;99.90;;;;;;4930774;29;20032;-79
2021/12/23 12:27:50;;;;;;;13.23;6.85;;;3.30;99.90;;;;;;4914139;29;20036;-80
2021/12/23 12:30:21;;;;;;;21.17;7.15;;;3.30;99.90;;;;;;4914161;29;20106;-78
2021/12/23 12:32:47;;;;;;;13.70;5.88;;;3.30;99.90;;;;;;4914055;29;20079;-79
2021/12/23 12:35:20;;;;;;;14.43;6.13;;;3.40;99.90;;;;;;4931034;29;20059;-79
2021/12/23 12:37:50;;;;;;;19.02;6.95;;;3.40;99.90;;;;;;4914200;29;20372;-79
2021/12/23 12:40:17;;;;;;;11.45;5.07;;;3.50;99.90;;;;;;4915110;29;20027;-79
2021/12/23 12:42:47;;;;;;;9.95;5.72;;;3.70;99.90;;;;;;4914554;29;20020;-79
2021/12/23 12:45:25;;;;;;;10.20;4.72;;;3.80;99.90;;;;;;4913920;29;20366;-78
2021/12/23 12:47:56;;;;;;;17.60;6.88;;;4.10;99.90;;;;;;4931474;29;20508;-79
2021/12/23 12:50:27;;;;;;;14.15;7.20;;;4.00;99.90;;;;;;4930899;29;20512;-79
2021/12/23 12:53:00;;;;;;;11.90;5.70;;;4.20;99.90;;;;;;4913493;29;20563;-79
2021/12/23 12:55:27;;;;;;;17.73;5.75;;;4.20;99.90;;;;;;4913622;29;20031;-80
2021/12/23 12:58:04;;;;;;;13.77;6.80;;;4.30;99.90;;;;;;4931001;29;20039;-79
2021/12/23 13:00:39;;;;;;;17.13;6.00;;;4.30;99.90;;;;;;4930430;29;20035;-78
2021/12/23 13:03:20;;;;;;;12.48;5.53;;;4.10;99.90;;;;;;4915315;29;20432;-78
2021/12/23 13:05:53;;;;;;;8.90;4.72;;;4.10;99.90;;;;;;4918843;29;20019;-79
2021/12/23 13:08:35;;;;;;;11.35;6.20;;;4.10;99.90;;;;;;4917351;29;20383;-76
2021/12/23 13:11:18;;;;;;;17.75;8.98;;;4.00;99.90;;;;;;4916549;29;20056;-77
2021/12/23 13:13:46;;;;;;;17.90;7.88;;;3.90;99.90;;;;;;4919127;29;20028;-79
2021/12/23 13:16:23;;;;;;;19.35;7.22;;;3.60;99.90;;;;;;4921710;29;20110;-77
2021/12/23 13:19:17;;;;;;;13.30;6.93;;;3.50;99.90;;;;;;4922030;29;20118;-82
2021/12/23 13:21:46;;;;;;;17.55;7.25;;;3.60;99.90;;;;;;4922450;29;20031;-78
2021/12/23 13:24:17;;;;;;;17.23;7.20;;;3.60;99.90;;;;;;4921163;29;20032;-82
2021/12/23 13:26:44;;;;;;;14.43;6.93;;;3.60;99.90;;;;;;4931563;29;20741;-81
2021/12/23 13:29:10;;;;;;;14.70;6.75;;;3.60;99.90;;;;;;4938269;29;20051;-81
2021/12/23 13:31:39;;;;;;;21.60;8.30;;;3.70;99.90;;;;;;4932224;29;20102;-79
2021/12/23 13:34:23;;;;;;;20.75;11.73;;;3.70;99.90;;;;;;4930699;29;20500;-80
2021/12/23 13:36:52;;;;;;;19.02;5.88;;;3.80;99.90;;;;;;4908358;29;20064;-79
2021/12/23 13:39:19;;;;;;;;;;;3.60;99.90;;;;;;4936778;29;20024;-78
2021/12/23 13:41:52;;;;;;;16.13;5.78;;;3.60;99.90;;;;;;4927037;29;19962;-80
2021/12/23 13:44:36;;;;;;;15.25;5.57;;;3.50;99.90;;;;;;4944522;29;20024;-83
2021/12/23 13:47:12;;;;;;;14.60;7.40;;;3.50;99.90;;;;;;4940184;29;20071;-80
2021/12/23 13:49:42;;;;;;;15.23;7.55;;;3.50;99.90;;;;;;4940480;29;20028;-79
2021/12/23 13:52:10;;;;;;;13.00;6.55;;;3.60;99.90;;;;;;4922649;29;20024;-79
2021/12/23 13:54:39;;;;;;;22.40;8.03;;;3.70;99.90;;;;;;4942413;29;20036;-79
2021/12/23 13:57:10;;;;;;;7.72;3.97;;;3.60;99.90;;;;;;4929541;29;20286;-81
2021/12/23 13:59:36;;;;;;;14.93;5.50;;;3.60;99.90;;;;;;4927956;29;20116;-83
2021/12/23 14:02:11;;;;;;;12.20;6.22;;;3.50;99.90;;;;;;4925894;29;20027;-80
2021/12/23 14:04:41;;;;;;;19.45;7.18;;;3.60;99.90;;;;;;4925698;29;20547;-79